createdAt,value
2024-04-18T00:00:05.570Z,91.66
2024-04-18T00:00:15.614Z,91.76
2024-04-18T00:00:35.564Z,91.72
2024-04-18T00:00:45.736Z,91.72
2024-04-18T00:00:55.557Z,91.72
2024-04-18T00:01:05.675Z,91.67
2024-04-18T00:01:16.537Z,91.61
2024-04-18T00:01:25.517Z,91.72
2024-04-18T00:01:45.595Z,91.82
2024-04-18T00:01:55.532Z,91.72
2024-04-18T00:02:05.486Z,91.82
2024-04-18T00:02:16.379Z,91.86
2024-04-18T00:02:25.673Z,91.82
2024-04-18T00:02:35.467Z,91.86
2024-04-18T00:02:55.504Z,91.97
2024-04-18T00:03:06.406Z,91.93
2024-04-18T00:03:15.597Z,91.82
2024-04-18T00:03:25.542Z,91.86
2024-04-18T00:03:35.499Z,91.97
2024-04-18T00:03:45.534Z,91.86
2024-04-18T00:04:05.643Z,92.07
2024-04-18T00:04:16.574Z,92.07
2024-04-18T00:04:25.652Z,92.07
2024-04-18T00:04:35.556Z,92.03
2024-04-18T00:04:45.557Z,92.18
2024-04-18T00:04:56.592Z,92.18
2024-04-18T00:05:15.539Z,92.13
2024-04-18T00:05:25.507Z,92.18
2024-04-18T00:05:35.495Z,92.24
2024-04-18T00:05:46.464Z,92.38
2024-04-18T00:05:55.575Z,92.44
2024-04-18T00:06:05.519Z,92.44
2024-04-18T00:06:25.645Z,92.55
2024-04-18T00:06:35.497Z,92.44
2024-04-18T00:06:45.522Z,92.44
2024-04-18T00:06:55.471Z,92.59
2024-04-18T00:07:05.505Z,92.59
2024-04-18T00:07:15.502Z,92.59
2024-04-18T00:07:25.519Z,92.55
2024-04-18T00:07:35.543Z,92.65
2024-04-18T00:07:55.480Z,92.76
2024-04-18T00:08:05.502Z,92.80
2024-04-18T00:08:15.498Z,92.80
2024-04-18T00:08:25.509Z,92.90
2024-04-18T00:08:35.586Z,92.90
2024-04-18T00:08:45.450Z,92.80
2024-04-18T00:08:55.455Z,92.76
2024-04-18T00:09:06.352Z,92.90
2024-04-18T00:09:16.416Z,92.85
2024-04-18T00:09:25.533Z,93.00
2024-04-18T00:09:45.504Z,93.00
2024-04-18T00:09:55.430Z,93.10
2024-04-18T00:10:06.413Z,93.10
2024-04-18T00:10:15.493Z,93.06
2024-04-18T00:10:25.473Z,93.10
2024-04-18T00:10:35.536Z,93.10
2024-04-18T00:10:45.489Z,93.10
2024-04-18T00:10:55.481Z,93.10
2024-04-18T00:11:15.495Z,93.06
2024-04-18T00:11:25.583Z,93.16
2024-04-18T00:11:35.476Z,93.21
2024-04-18T00:11:47.553Z,93.16
2024-04-18T00:11:55.461Z,93.16
2024-04-18T00:12:05.445Z,93.27
2024-04-18T00:12:15.480Z,93.27
2024-04-18T00:12:25.617Z,93.41
2024-04-18T00:12:35.996Z,93.31
2024-04-18T00:12:55.449Z,93.27
2024-04-18T00:13:05.436Z,93.27
2024-04-18T00:13:15.465Z,93.41
2024-04-18T00:13:25.463Z,93.41
2024-04-18T00:13:35.471Z,93.27
2024-04-18T00:13:45.543Z,93.31
2024-04-18T00:14:05.479Z,93.27
2024-04-18T00:14:15.436Z,93.27
2024-04-18T00:14:25.428Z,93.41
2024-04-18T00:14:35.430Z,93.27
2024-04-18T00:14:46.487Z,93.27
2024-04-18T00:14:55.418Z,93.31
2024-04-18T00:15:15.492Z,93.31
2024-04-18T00:15:25.467Z,93.27
2024-04-18T00:15:35.500Z,93.31
2024-04-18T00:15:45.482Z,93.21
2024-04-18T00:15:56.467Z,93.31
2024-04-18T00:16:05.456Z,93.41
2024-04-18T00:16:25.419Z,93.31
2024-04-18T00:16:35.452Z,93.31
2024-04-18T00:16:45.451Z,93.31
2024-04-18T00:16:55.623Z,93.31
2024-04-18T00:17:05.624Z,93.31
2024-04-18T00:17:15.454Z,93.31
2024-04-18T00:17:35.478Z,93.31
2024-04-18T00:17:45.551Z,93.31
2024-04-18T00:17:55.503Z,93.31
2024-04-18T00:18:05.449Z,93.21
2024-04-18T00:18:15.443Z,93.35
2024-04-18T00:18:25.664Z,93.31
2024-04-18T00:18:45.556Z,93.31
2024-04-18T00:18:56.515Z,93.21
2024-04-18T00:19:05.422Z,93.21
2024-04-18T00:19:15.401Z,93.21
2024-04-18T00:19:25.431Z,93.21
2024-04-18T00:19:35.580Z,93.25
2024-04-18T00:19:45.494Z,93.21
2024-04-18T00:20:05.409Z,93.21
2024-04-18T00:20:15.421Z,93.25
2024-04-18T00:20:25.426Z,93.31
2024-04-18T00:20:35.385Z,93.35
2024-04-18T00:20:45.413Z,93.31
2024-04-18T00:20:55.456Z,93.31
2024-04-18T00:21:15.458Z,93.31
2024-04-18T00:21:25.455Z,93.31
2024-04-18T00:21:35.431Z,93.31
2024-04-18T00:21:45.526Z,93.46
2024-04-18T00:21:55.448Z,93.41
2024-04-18T00:22:05.399Z,93.46
2024-04-18T00:22:25.545Z,93.31
2024-04-18T00:22:35.412Z,93.46
2024-04-18T00:22:45.410Z,93.46
2024-04-18T00:22:55.999Z,93.41
2024-04-18T00:23:05.929Z,93.41
2024-04-18T00:23:15.390Z,93.52
2024-04-18T00:23:35.412Z,93.56
2024-04-18T00:23:45.411Z,93.46
2024-04-18T00:23:55.376Z,93.56
2024-04-18T00:24:05.395Z,93.52
2024-04-18T00:24:15.461Z,93.41
2024-04-18T00:24:25.508Z,93.46
2024-04-18T00:24:35.555Z,93.52
2024-04-18T00:24:45.541Z,93.52
2024-04-18T00:24:55.403Z,93.56
2024-04-18T00:25:05.394Z,93.52
2024-04-18T00:25:15.451Z,93.66
2024-04-18T00:25:35.445Z,93.66
2024-04-18T00:25:45.399Z,93.73
2024-04-18T00:25:55.368Z,93.66
2024-04-18T00:26:05.394Z,93.77
2024-04-18T00:26:15.394Z,93.66
2024-04-18T00:26:25.380Z,93.62
2024-04-18T00:26:35.449Z,93.62
2024-04-18T00:26:55.398Z,93.66
2024-04-18T00:27:05.407Z,93.66
2024-04-18T00:27:15.938Z,93.77
2024-04-18T00:27:25.521Z,93.73
2024-04-18T00:27:35.503Z,93.77
2024-04-18T00:27:45.442Z,93.77
2024-04-18T00:28:05.416Z,93.73
2024-04-18T00:28:15.380Z,93.77
2024-04-18T00:28:25.367Z,93.77
2024-04-18T00:28:35.384Z,93.83
2024-04-18T00:28:45.363Z,93.87
2024-04-18T00:28:55.381Z,93.87
2024-04-18T00:29:15.378Z,93.98
2024-04-18T00:29:25.431Z,93.83
2024-04-18T00:29:35.561Z,93.98
2024-04-18T00:29:45.382Z,93.98
2024-04-18T00:29:55.452Z,94.08
2024-04-18T00:30:05.384Z,94.08
2024-04-18T00:30:25.371Z,94.08
2024-04-18T00:30:35.386Z,94.08
2024-04-18T00:30:45.399Z,94.18
2024-04-18T00:30:55.389Z,94.18
2024-04-18T00:31:05.373Z,94.23
2024-04-18T00:31:15.355Z,94.23
2024-04-18T00:31:25.911Z,94.23
2024-04-18T00:31:45.414Z,94.33
2024-04-18T00:31:55.377Z,94.43
2024-04-18T00:32:05.432Z,94.48
2024-04-18T00:32:15.513Z,94.43
2024-04-18T00:32:25.334Z,94.58
2024-04-18T00:32:35.622Z,94.49
2024-04-18T00:32:45.451Z,94.58
2024-04-18T00:32:55.426Z,94.64
2024-04-18T00:33:05.433Z,94.64
2024-04-18T00:33:15.513Z,94.74
2024-04-18T00:33:25.406Z,94.74
2024-04-18T00:33:45.475Z,94.89
2024-04-18T00:33:55.391Z,94.95
2024-04-18T00:34:05.458Z,95.00
2024-04-18T00:34:15.390Z,95.00
2024-04-18T00:34:25.359Z,95.10
2024-04-18T00:34:35.346Z,95.10
2024-04-18T00:34:55.390Z,95.20
2024-04-18T00:35:05.962Z,95.36
2024-04-18T00:35:15.325Z,95.31
2024-04-18T00:35:25.353Z,95.41
2024-04-18T00:35:35.385Z,95.37
2024-04-18T00:35:45.380Z,95.41
2024-04-18T00:36:05.360Z,95.51
2024-04-18T00:36:15.337Z,95.51
2024-04-18T00:36:25.379Z,95.62
2024-04-18T00:36:35.387Z,95.62
2024-04-18T00:36:45.362Z,95.62
2024-04-18T00:36:55.375Z,95.62
2024-04-18T00:37:05.395Z,95.72
2024-04-18T00:37:25.944Z,95.87
2024-04-18T00:37:35.353Z,95.83
2024-04-18T00:37:45.437Z,95.87
2024-04-18T00:37:55.353Z,95.98
2024-04-18T00:38:05.607Z,95.98
2024-04-18T00:38:15.411Z,95.98
2024-04-18T00:38:35.371Z,96.08
2024-04-18T00:38:45.346Z,96.08
2024-04-18T00:38:55.360Z,96.19
2024-04-18T00:39:05.354Z,96.14
2024-04-18T00:39:15.377Z,96.29
2024-04-18T00:39:25.466Z,96.29
2024-04-18T00:39:46.003Z,96.39
2024-04-18T00:39:55.564Z,96.39
2024-04-18T00:40:05.331Z,96.34
2024-04-18T00:40:15.342Z,96.39
2024-04-18T00:40:25.334Z,96.50
2024-04-18T00:40:35.373Z,96.50
2024-04-18T00:40:55.304Z,96.50
2024-04-18T00:41:05.320Z,96.50
2024-04-18T00:41:15.342Z,96.60
2024-04-18T00:41:25.382Z,96.60
2024-04-18T00:41:35.310Z,96.60
2024-04-18T00:41:45.886Z,96.55
2024-04-18T00:41:55.487Z,96.60
2024-04-18T00:42:05.317Z,96.55
2024-04-18T00:42:15.357Z,96.70
2024-04-18T00:42:35.338Z,96.60
2024-04-18T00:42:45.492Z,96.55
2024-04-18T00:42:55.308Z,96.70
2024-04-18T00:43:05.352Z,96.55
2024-04-18T00:43:15.350Z,96.70
2024-04-18T00:43:25.325Z,96.81
2024-04-18T00:43:35.360Z,96.55
2024-04-18T00:43:55.922Z,96.70
2024-04-18T00:44:05.325Z,96.60
2024-04-18T00:44:15.314Z,96.60
2024-04-18T00:44:25.312Z,96.60
2024-04-18T00:44:35.315Z,96.60
2024-04-18T00:44:45.329Z,96.60
2024-04-18T00:45:05.320Z,96.70
2024-04-18T00:45:15.369Z,96.60
2024-04-18T00:45:25.324Z,96.70
2024-04-18T00:45:35.435Z,96.70
2024-04-18T00:45:45.457Z,96.70
2024-04-18T00:45:55.348Z,96.70
2024-04-18T00:46:05.945Z,96.66
2024-04-18T00:46:15.289Z,96.66
2024-04-18T00:46:35.307Z,96.70
2024-04-18T00:46:45.297Z,96.55
2024-04-18T00:46:55.285Z,96.70
2024-04-18T00:47:05.289Z,96.66
2024-04-18T00:47:15.276Z,96.55
2024-04-18T00:47:25.381Z,96.45
2024-04-18T00:47:45.375Z,96.50
2024-04-18T00:47:55.382Z,96.45
2024-04-18T00:48:05.988Z,96.50
2024-04-18T00:48:15.698Z,96.45
2024-04-18T00:48:25.373Z,96.45
2024-04-18T00:48:35.506Z,96.39
2024-04-18T00:48:45.796Z,96.34
2024-04-18T00:49:05.321Z,96.34
2024-04-18T00:49:15.382Z,96.39
2024-04-18T00:49:25.389Z,96.34
2024-04-18T00:49:35.322Z,96.39
2024-04-18T00:49:45.290Z,96.39
2024-04-18T00:49:55.315Z,96.34
2024-04-18T00:50:05.300Z,96.45
2024-04-18T00:50:25.275Z,96.45
2024-04-18T00:50:35.287Z,96.34
2024-04-18T00:50:45.284Z,96.34
2024-04-18T00:50:55.274Z,96.34
2024-04-18T00:51:05.312Z,96.34
2024-04-18T00:51:15.360Z,96.29
2024-04-18T00:51:35.297Z,96.24
2024-04-18T00:51:45.332Z,96.29
2024-04-18T00:51:55.277Z,96.29
2024-04-18T00:52:05.267Z,96.24
2024-04-18T00:52:15.956Z,96.24
2024-04-18T00:52:25.266Z,96.24
2024-04-18T00:52:45.390Z,96.29
2024-04-18T00:52:55.274Z,96.39
2024-04-18T00:53:05.281Z,96.29
2024-04-18T00:53:15.290Z,96.24
2024-04-18T00:53:25.269Z,96.24
2024-04-18T00:53:35.250Z,96.34
2024-04-18T00:53:55.348Z,96.39
2024-04-18T00:54:05.266Z,96.34
2024-04-18T00:54:15.317Z,96.34
2024-04-18T00:54:25.380Z,96.39
2024-04-18T00:54:35.620Z,96.39
2024-04-18T00:54:45.290Z,96.39
2024-04-18T00:55:05.287Z,96.39
2024-04-18T00:55:15.947Z,96.24
2024-04-18T00:55:25.287Z,96.24
2024-04-18T00:55:35.307Z,96.29
2024-04-18T00:55:45.254Z,96.19
2024-04-18T00:55:55.284Z,96.14
2024-04-18T00:56:18.068Z,96.14
2024-04-18T00:56:25.903Z,96.03
2024-04-18T00:56:35.388Z,96.08
2024-04-18T00:56:45.276Z,96.03
2024-04-18T00:56:55.271Z,96.03
2024-04-18T00:57:05.286Z,95.93
2024-04-18T00:57:25.299Z,95.83
2024-04-18T00:57:35.345Z,95.83
2024-04-18T00:57:45.364Z,95.87
2024-04-18T00:57:55.263Z,95.83
2024-04-18T00:58:05.235Z,95.77
2024-04-18T00:58:15.258Z,95.77
2024-04-18T00:58:35.340Z,95.77
2024-04-18T00:58:45.405Z,95.77
2024-04-18T00:58:55.310Z,95.77
2024-04-18T00:59:05.291Z,95.77
2024-04-18T00:59:15.269Z,95.77
2024-04-18T00:59:25.249Z,95.72
2024-04-18T00:59:45.232Z,95.87
2024-04-18T00:59:55.227Z,95.87
2024-04-18T01:00:05.267Z,95.72
2024-04-18T01:00:15.327Z,95.87
2024-04-18T01:00:25.317Z,95.87
2024-04-18T01:00:36.007Z,95.77
2024-04-18T01:00:45.541Z,95.87
2024-04-18T01:01:05.358Z,95.77
2024-04-18T01:01:15.400Z,95.87
2024-04-18T01:01:25.438Z,95.87
2024-04-18T01:01:35.297Z,95.77
2024-04-18T01:01:45.229Z,95.77
2024-04-18T01:01:55.225Z,95.87
2024-04-18T01:02:15.303Z,95.83
2024-04-18T01:02:25.222Z,95.87
2024-04-18T01:02:35.242Z,95.87
2024-04-18T01:02:45.299Z,95.92
2024-04-18T01:02:55.226Z,95.98
2024-04-18T01:03:05.270Z,95.93
2024-04-18T01:03:15.298Z,95.98
2024-04-18T01:03:35.405Z,95.98
2024-04-18T01:03:45.308Z,95.98
2024-04-18T01:03:55.361Z,95.98
2024-04-18T01:04:05.359Z,95.98
2024-04-18T01:04:15.603Z,95.83
2024-04-18T01:04:25.319Z,95.87
2024-04-18T01:04:45.299Z,95.83
2024-04-18T01:04:55.272Z,95.93
2024-04-18T01:05:05.293Z,95.98
2024-04-18T01:05:15.260Z,95.98
2024-04-18T01:05:25.204Z,95.87
2024-04-18T01:05:35.257Z,95.98
2024-04-18T01:05:55.218Z,95.87
2024-04-18T01:06:05.216Z,95.87
2024-04-18T01:06:15.250Z,95.83
2024-04-18T01:06:25.252Z,95.93
2024-04-18T01:06:35.445Z,95.87
2024-04-18T01:06:45.303Z,95.87
2024-04-18T01:06:55.348Z,95.83
2024-04-18T01:07:15.216Z,95.87
2024-04-18T01:07:25.234Z,95.72
2024-04-18T01:07:35.911Z,95.83
2024-04-18T01:07:45.191Z,95.87
2024-04-18T01:07:55.226Z,95.87
2024-04-18T01:08:05.248Z,95.87
2024-04-18T01:08:15.205Z,95.87
2024-04-18T01:08:35.193Z,95.87
2024-04-18T01:08:45.215Z,95.77
2024-04-18T01:08:55.252Z,95.83
2024-04-18T01:09:05.205Z,95.83
2024-04-18T01:09:15.238Z,95.87
2024-04-18T01:09:25.910Z,95.83
2024-04-18T01:09:45.281Z,95.67
2024-04-18T01:09:55.179Z,95.67
2024-04-18T01:10:05.201Z,95.56
2024-04-18T01:10:15.197Z,95.62
2024-04-18T01:10:25.194Z,95.56
2024-04-18T01:10:35.236Z,95.56
2024-04-18T01:10:45.230Z,95.56
2024-04-18T01:10:55.899Z,95.56
2024-04-18T01:11:05.293Z,95.56
2024-04-18T01:11:25.218Z,95.56
2024-04-18T01:11:35.307Z,95.56
2024-04-18T01:11:45.282Z,95.56
2024-04-18T01:11:55.256Z,95.56
2024-04-18T01:12:05.204Z,95.56
2024-04-18T01:12:15.185Z,95.56
2024-04-18T01:12:35.325Z,95.61
2024-04-18T01:12:45.314Z,95.56
2024-04-18T01:12:55.172Z,95.61
2024-04-18T01:13:05.230Z,95.46
2024-04-18T01:13:15.175Z,95.46
2024-04-18T01:13:25.186Z,95.46
2024-04-18T01:13:45.230Z,95.46
2024-04-18T01:13:55.211Z,95.46
2024-04-18T01:14:05.200Z,95.46
2024-04-18T01:14:15.167Z,95.56
2024-04-18T01:14:25.174Z,95.46
2024-04-18T01:14:35.197Z,95.56
2024-04-18T01:14:55.922Z,95.56
2024-04-18T01:15:05.205Z,95.67
2024-04-18T01:15:15.307Z,95.51
2024-04-18T01:15:25.200Z,95.56
2024-04-18T01:15:35.261Z,95.56
2024-04-18T01:15:45.246Z,95.56
2024-04-18T01:16:05.199Z,95.56
2024-04-18T01:16:15.157Z,95.61
2024-04-18T01:16:25.187Z,95.56
2024-04-18T01:16:35.239Z,95.56
2024-04-18T01:16:45.155Z,95.56
2024-04-18T01:16:55.211Z,95.56
2024-04-18T01:17:06.123Z,95.61
2024-04-18T01:17:15.992Z,95.56
2024-04-18T01:17:35.262Z,95.51
2024-04-18T01:17:45.272Z,95.67
2024-04-18T01:17:55.275Z,95.56
2024-04-18T01:18:05.255Z,95.61
2024-04-18T01:18:15.382Z,95.61
2024-04-18T01:18:25.212Z,95.56
2024-04-18T01:18:45.242Z,95.56
2024-04-18T01:18:55.229Z,95.61
2024-04-18T01:19:05.214Z,95.46
2024-04-18T01:19:15.190Z,95.67
2024-04-18T01:19:25.213Z,95.62
2024-04-18T01:19:35.954Z,95.71
2024-04-18T01:19:45.238Z,95.67
2024-04-18T01:20:05.917Z,95.67
2024-04-18T01:20:15.203Z,95.77
2024-04-18T01:20:25.142Z,95.81
2024-04-18T01:20:35.138Z,95.77
2024-04-18T01:20:45.956Z,95.81
2024-04-18T01:20:55.146Z,95.77
2024-04-18T01:21:15.916Z,95.87
2024-04-18T01:21:28.078Z,95.77
2024-04-18T01:21:35.273Z,95.81
2024-04-18T01:21:45.215Z,95.87
2024-04-18T01:21:55.169Z,95.92
2024-04-18T01:22:06.139Z,95.87
2024-04-18T01:22:25.177Z,95.92
2024-04-18T01:22:35.176Z,95.72
2024-04-18T01:22:45.140Z,95.92
2024-04-18T01:22:55.125Z,95.92
2024-04-18T01:23:05.132Z,95.92
2024-04-18T01:23:15.138Z,95.92
2024-04-18T01:23:25.931Z,95.92
2024-04-18T01:23:35.216Z,95.87
2024-04-18T01:23:55.146Z,95.92
2024-04-18T01:24:05.121Z,95.87
2024-04-18T01:24:15.193Z,95.98
2024-04-18T01:24:25.185Z,95.92
2024-04-18T01:24:35.214Z,95.87
2024-04-18T01:24:45.302Z,95.92
2024-04-18T01:24:55.313Z,95.98
2024-04-18T01:25:05.174Z,95.87
2024-04-18T01:25:25.174Z,95.87
2024-04-18T01:25:35.912Z,95.87
2024-04-18T01:25:45.252Z,95.87
2024-04-18T01:25:55.185Z,95.87
2024-04-18T01:26:05.121Z,95.87
2024-04-18T01:26:15.138Z,95.87
2024-04-18T01:26:35.128Z,95.92
2024-04-18T01:26:45.163Z,95.92
2024-04-18T01:26:55.169Z,95.92
2024-04-18T01:27:05.140Z,95.92
2024-04-18T01:27:15.175Z,95.87
2024-04-18T01:27:25.149Z,95.77
2024-04-18T01:27:45.246Z,95.81
2024-04-18T01:27:55.108Z,95.87
2024-04-18T01:28:05.104Z,95.96
2024-04-18T01:28:15.140Z,95.87
2024-04-18T01:28:25.167Z,95.92
2024-04-18T01:28:35.115Z,95.81
2024-04-18T01:28:55.189Z,95.92
2024-04-18T01:29:05.147Z,95.77
2024-04-18T01:29:15.170Z,95.87
2024-04-18T01:29:25.113Z,95.87
2024-04-18T01:29:35.144Z,95.87
2024-04-18T01:29:45.336Z,95.92
2024-04-18T01:29:55.241Z,95.92
2024-04-18T01:30:05.210Z,95.87
2024-04-18T01:30:15.191Z,95.92
2024-04-18T01:30:25.254Z,95.92
2024-04-18T01:30:35.185Z,95.92
2024-04-18T01:30:55.147Z,95.98
2024-04-18T01:31:05.111Z,96.02
2024-04-18T01:31:15.165Z,95.98
2024-04-18T01:31:25.091Z,96.02
2024-04-18T01:31:35.128Z,96.08
2024-04-18T01:31:45.115Z,96.08
2024-04-18T01:31:55.938Z,96.12
2024-04-18T01:32:05.104Z,96.23
2024-04-18T01:32:25.124Z,96.08
2024-04-18T01:32:35.226Z,96.19
2024-04-18T01:32:45.138Z,96.23
2024-04-18T01:32:55.197Z,96.12
2024-04-18T01:33:05.136Z,96.23
2024-04-18T01:33:15.320Z,96.23
2024-04-18T01:33:26.407Z,96.12
2024-04-18T01:33:45.191Z,96.23
2024-04-18T01:33:55.243Z,96.23
2024-04-18T01:34:05.210Z,96.23
2024-04-18T01:34:15.210Z,96.23
2024-04-18T01:34:25.178Z,96.23
2024-04-18T01:34:35.256Z,96.23
2024-04-18T01:34:55.091Z,96.23
2024-04-18T01:35:05.080Z,96.33
2024-04-18T01:35:15.124Z,96.19
2024-04-18T01:35:25.141Z,96.12
2024-04-18T01:35:35.113Z,96.23
2024-04-18T01:35:45.097Z,96.23
2024-04-18T01:35:55.118Z,96.33
2024-04-18T01:36:08.004Z,96.19
2024-04-18T01:36:25.107Z,96.33
2024-04-18T01:36:35.107Z,96.23
2024-04-18T01:36:45.184Z,96.33
2024-04-18T01:36:55.145Z,96.33
2024-04-18T01:37:05.090Z,96.33
2024-04-18T01:37:15.109Z,96.37
2024-04-18T01:37:25.103Z,96.37
2024-04-18T01:37:45.113Z,96.44
2024-04-18T01:37:55.981Z,96.44
2024-04-18T01:38:05.086Z,96.58
2024-04-18T01:38:15.970Z,96.44
2024-04-18T01:38:25.102Z,96.37
2024-04-18T01:38:35.104Z,96.48
2024-04-18T01:38:55.076Z,96.44
2024-04-18T01:39:05.075Z,96.48
2024-04-18T01:39:15.951Z,96.44
2024-04-18T01:39:25.131Z,96.44
2024-04-18T01:39:35.215Z,96.48
2024-04-18T01:39:45.347Z,96.44
2024-04-18T01:40:05.103Z,96.44
2024-04-18T01:40:15.929Z,96.37
2024-04-18T01:40:25.531Z,96.44
2024-04-18T01:40:35.095Z,96.44
2024-04-18T01:40:45.116Z,96.48
2024-04-18T01:40:55.057Z,96.48
2024-04-18T01:41:15.101Z,96.54
2024-04-18T01:41:26.018Z,96.44
2024-04-18T01:41:35.091Z,96.48
2024-04-18T01:41:45.140Z,96.58
2024-04-18T01:41:55.075Z,96.48
2024-04-18T01:42:05.104Z,96.58
2024-04-18T01:42:15.153Z,96.44
2024-04-18T01:42:35.084Z,96.48
2024-04-18T01:42:45.185Z,96.58
2024-04-18T01:42:55.048Z,96.44
2024-04-18T01:43:05.130Z,96.48
2024-04-18T01:43:15.137Z,96.48
2024-04-18T01:43:25.093Z,96.48
2024-04-18T01:43:45.114Z,96.58
2024-04-18T01:43:55.106Z,96.58
2024-04-18T01:44:05.060Z,96.58
2024-04-18T01:44:15.071Z,96.58
2024-04-18T01:44:25.901Z,96.58
2024-04-18T01:44:35.064Z,96.58
2024-04-18T01:44:55.188Z,96.69
2024-04-18T01:45:05.099Z,96.69
2024-04-18T01:45:15.046Z,96.54
2024-04-18T01:45:25.094Z,96.54
2024-04-18T01:45:35.159Z,96.58
2024-04-18T01:45:45.136Z,96.54
2024-04-18T01:45:55.975Z,96.58
2024-04-18T01:46:15.039Z,96.58
2024-04-18T01:46:25.915Z,96.48
2024-04-18T01:46:35.257Z,96.58
2024-04-18T01:46:45.053Z,96.48
2024-04-18T01:46:55.112Z,96.48
2024-04-18T01:47:05.037Z,96.58
2024-04-18T01:47:15.052Z,96.44
2024-04-18T01:47:35.092Z,96.48
2024-04-18T01:47:45.154Z,96.44
2024-04-18T01:47:55.161Z,96.44
2024-04-18T01:48:05.153Z,96.58
2024-04-18T01:48:15.260Z,96.58
2024-04-18T01:48:26.102Z,96.58
2024-04-18T01:48:36.036Z,96.58
2024-04-18T01:48:55.218Z,96.54
2024-04-18T01:49:05.947Z,96.58
2024-04-18T01:49:15.135Z,96.62
2024-04-18T01:49:25.026Z,96.58
2024-04-18T01:49:35.018Z,96.48
2024-04-18T01:49:45.014Z,96.54
2024-04-18T01:49:55.044Z,96.44
2024-04-18T01:50:15.085Z,96.48
2024-04-18T01:50:25.041Z,96.48
2024-04-18T01:50:35.132Z,96.48
2024-04-18T01:50:45.959Z,96.58
2024-04-18T01:50:55.038Z,96.37
2024-04-18T01:51:05.295Z,96.48
2024-04-18T01:51:25.061Z,96.48
2024-04-18T01:51:35.054Z,96.48
2024-04-18T01:51:45.208Z,96.48
2024-04-18T01:51:55.031Z,96.48
2024-04-18T01:52:05.037Z,96.48
2024-04-18T01:52:15.028Z,96.37
2024-04-18T01:52:35.944Z,96.48
2024-04-18T01:52:45.917Z,96.37
2024-04-18T01:52:55.010Z,96.44
2024-04-18T01:53:05.065Z,96.37
2024-04-18T01:53:15.117Z,96.48
2024-04-18T01:53:25.048Z,96.37
2024-04-18T01:53:45.109Z,96.37
2024-04-18T01:53:55.987Z,96.37
2024-04-18T01:54:05.000Z,96.37
2024-04-18T01:54:15.035Z,96.31
2024-04-18T01:54:25.231Z,96.37
2024-04-18T01:54:35.023Z,96.31
2024-04-18T01:54:45.146Z,96.27
2024-04-18T01:55:05.054Z,96.37
2024-04-18T01:55:15.084Z,96.27
2024-04-18T01:55:25.037Z,96.27
2024-04-18T01:55:35.923Z,96.27
2024-04-18T01:55:45.108Z,96.27
2024-04-18T01:55:55.060Z,96.23
2024-04-18T01:56:05.144Z,96.17
2024-04-18T01:56:15.009Z,96.17
2024-04-18T01:56:25.150Z,96.27
2024-04-18T01:56:45.005Z,96.27
2024-04-18T01:56:55.910Z,96.21
2024-04-18T01:57:05.940Z,96.17
2024-04-18T01:57:15.098Z,96.21
2024-04-18T01:57:25.062Z,96.21
2024-04-18T01:57:35.022Z,96.27
2024-04-18T01:57:45.078Z,96.17
2024-04-18T01:58:05.001Z,96.27
2024-04-18T01:58:15.012Z,96.06
2024-04-18T01:58:24.979Z,96.31
2024-04-18T01:58:35.006Z,96.17
2024-04-18T01:58:44.979Z,96.17
2024-04-18T01:58:55.000Z,96.21
2024-04-18T01:59:05.262Z,96.17
2024-04-18T01:59:24.993Z,96.27
2024-04-18T01:59:34.979Z,96.27
2024-04-18T01:59:45.006Z,96.31
2024-04-18T01:59:54.992Z,96.21
2024-04-18T02:00:05.141Z,96.27
2024-04-18T02:00:14.992Z,96.23
2024-04-18T02:00:25.031Z,96.27
2024-04-18T02:00:45.094Z,96.27
2024-04-18T02:00:55.121Z,96.27
2024-04-18T02:01:05.524Z,96.27
2024-04-18T02:01:15.137Z,96.31
2024-04-18T02:01:25.149Z,96.27
2024-04-18T02:01:35.105Z,96.27
2024-04-18T02:01:55.015Z,96.27
2024-04-18T02:02:05.013Z,96.27
2024-04-18T02:02:14.975Z,96.23
2024-04-18T02:02:24.973Z,96.27
2024-04-18T02:02:34.957Z,96.31
2024-04-18T02:02:45.000Z,96.23
2024-04-18T02:03:08.028Z,96.27
2024-04-18T02:03:15.954Z,96.27
2024-04-18T02:03:25.058Z,96.31
2024-04-18T02:03:35.049Z,96.37
2024-04-18T02:03:45.199Z,96.27
2024-04-18T02:03:55.160Z,96.27
2024-04-18T02:04:15.075Z,96.37
2024-04-18T02:04:25.103Z,96.27
2024-04-18T02:04:35.082Z,96.37
2024-04-18T02:04:46.054Z,96.23
2024-04-18T02:04:55.036Z,96.37
2024-04-18T02:05:05.032Z,96.23
2024-04-18T02:05:16.015Z,96.42
2024-04-18T02:05:34.966Z,96.42
2024-04-18T02:05:44.956Z,96.27
2024-04-18T02:05:54.943Z,96.37
2024-04-18T02:06:04.975Z,96.42
2024-04-18T02:06:15.121Z,96.27
2024-04-18T02:06:25.092Z,96.27
2024-04-18T02:06:34.966Z,96.27
2024-04-18T02:06:45.287Z,96.27
2024-04-18T02:06:54.976Z,96.37
2024-04-18T02:07:15.956Z,96.37
2024-04-18T02:07:25.147Z,96.42
2024-04-18T02:07:34.963Z,96.27
2024-04-18T02:07:44.951Z,96.42
2024-04-18T02:07:54.966Z,96.42
2024-04-18T02:08:04.955Z,96.42
2024-04-18T02:08:24.961Z,96.37
2024-04-18T02:08:34.951Z,96.42
2024-04-18T02:08:44.946Z,96.37
2024-04-18T02:08:54.952Z,96.37
2024-04-18T02:09:04.953Z,96.42
2024-04-18T02:09:15.063Z,96.37
2024-04-18T02:09:26.064Z,96.37
2024-04-18T02:09:35.228Z,96.42
2024-04-18T02:09:54.978Z,96.37
2024-04-18T02:10:04.929Z,96.37
2024-04-18T02:10:14.978Z,96.37
2024-04-18T02:10:25.929Z,96.42
2024-04-18T02:10:34.944Z,96.42
2024-04-18T02:10:44.977Z,96.42
2024-04-18T02:10:54.988Z,96.42
2024-04-18T02:11:04.967Z,96.48
2024-04-18T02:11:16.083Z,96.52
2024-04-18T02:11:35.115Z,96.48
2024-04-18T02:11:45.157Z,96.48
2024-04-18T02:11:54.942Z,96.52
2024-04-18T02:12:04.939Z,96.52
2024-04-18T02:12:14.995Z,96.48
2024-04-18T02:12:24.962Z,96.48
2024-04-18T02:12:45.019Z,96.58
2024-04-18T02:12:54.996Z,96.58
2024-04-18T02:13:04.965Z,96.62
2024-04-18T02:13:14.995Z,96.58
2024-04-18T02:13:24.955Z,96.58
2024-04-18T02:13:35.038Z,96.58
2024-04-18T02:13:54.969Z,96.62
2024-04-18T02:14:04.965Z,96.62
2024-04-18T02:14:14.978Z,96.62
2024-04-18T02:14:24.962Z,96.73
2024-04-18T02:14:34.928Z,96.69
2024-04-18T02:14:44.929Z,96.73
2024-04-18T02:15:04.907Z,96.73
2024-04-18T02:15:14.962Z,96.69
2024-04-18T02:15:24.943Z,96.73
2024-04-18T02:15:35.476Z,96.73
2024-04-18T02:15:45.202Z,96.79
2024-04-18T02:15:54.913Z,96.83
2024-04-18T02:16:14.938Z,96.83
2024-04-18T02:16:24.929Z,96.79
2024-04-18T02:16:34.951Z,96.83
2024-04-18T02:16:44.937Z,96.83
2024-04-18T02:16:54.957Z,96.83
2024-04-18T02:17:04.993Z,96.94
2024-04-18T02:17:15.006Z,96.83
2024-04-18T02:17:25.037Z,96.83
2024-04-18T02:17:45.099Z,96.94
2024-04-18T02:17:55.090Z,96.94
2024-04-18T02:18:05.470Z,96.94
2024-04-18T02:18:15.136Z,96.94
2024-04-18T02:18:24.950Z,96.89
2024-04-18T02:18:35.017Z,97.04
2024-04-18T02:18:55.070Z,97.04
2024-04-18T02:19:04.965Z,97.00
2024-04-18T02:19:14.956Z,97.04
2024-04-18T02:19:24.955Z,97.00
2024-04-18T02:19:35.445Z,97.14
2024-04-18T02:19:45.458Z,97.00
2024-04-18T02:20:04.955Z,97.10
2024-04-18T02:20:14.896Z,97.04
2024-04-18T02:20:24.893Z,97.04
2024-04-18T02:20:34.908Z,97.14
2024-04-18T02:20:44.979Z,97.14
2024-04-18T02:20:54.909Z,97.00
2024-04-18T02:21:15.003Z,97.10
2024-04-18T02:21:24.954Z,97.10
2024-04-18T02:21:34.916Z,97.04
2024-04-18T02:21:45.092Z,97.14
2024-04-18T02:21:54.904Z,97.14
2024-04-18T02:22:04.903Z,97.19
2024-04-18T02:22:24.913Z,97.25
2024-04-18T02:22:34.898Z,97.10
2024-04-18T02:22:44.895Z,97.20
2024-04-18T02:22:54.903Z,97.25
2024-04-18T02:23:04.900Z,97.14
2024-04-18T02:23:14.882Z,97.25
2024-04-18T02:23:34.941Z,97.25
2024-04-18T02:23:44.893Z,97.20
2024-04-18T02:23:55.483Z,97.35
2024-04-18T02:24:04.912Z,97.31
2024-04-18T02:24:14.938Z,97.35
2024-04-18T02:24:24.906Z,97.35
2024-04-18T02:24:44.978Z,97.35
2024-04-18T02:24:54.931Z,97.31
2024-04-18T02:25:04.912Z,97.25
2024-04-18T02:25:14.895Z,97.35
2024-04-18T02:25:24.882Z,97.40
2024-04-18T02:25:34.868Z,97.35
2024-04-18T02:25:44.979Z,97.35
2024-04-18T02:26:04.996Z,97.45
2024-04-18T02:26:14.912Z,97.31
2024-04-18T02:26:24.879Z,97.31
2024-04-18T02:26:34.886Z,97.45
2024-04-18T02:26:45.418Z,97.35
2024-04-18T02:26:55.024Z,97.45
2024-04-18T02:27:15.067Z,97.45
2024-04-18T02:27:24.931Z,97.41
2024-04-18T02:27:34.937Z,97.52
2024-04-18T02:27:45.215Z,97.52
2024-04-18T02:27:55.420Z,97.67